Hauptseite
METAR-TAF:

METAR-TAF

Flughäfen :

Flughafen Gran Canaria

Gran Canaria, Spanien

Breite: 27-56N, Länge: 015-23W, Höhe: 23 m

Beobachtung

Neuester Wetterbericht von vor 31 Minuten, um 03:00 UTC
Wind 10 kt aus Nord
Temperatur 18°C
Luftfeuchtigkeit 73%
Luftdruck 1017 hPa
Sichtweite 10 km oder mehr
Leicht bewölkt in der Höhe von 4500 ft

METAR: GCLP 250300Z 36010KT 9999 FEW045 18/13 Q1017 NOSIG

Zeit: 04:31 (03:31 UTC)

Prognose

Neuester Wetterbericht von vor 1 Stunde und 31 Minuten, um 02:00 UTC
Gültige Prognose vom 25 um 03 UTC bis 26 um 03 UTC
Wind 13 kt aus Nord
Sichtweite 10 km oder mehr
Aufgelockert bewölkt in der Höhe von 3500 ft
Wahrscheinlichkeit 40% :
Zeitweise
vom 25 um 12 UTC bis 25 um 19 UTC
Wind 18 kt aus Nord, Böen bis zu 28 kt

TAF: GCLP 250200Z 2503/2603 35013KT 9999 SCT035 TX23/2514Z TN16/2505Z PROB40 TEMPO 2512/2519 01018G28KT

Wetterbeobachtungen und Prognosen von mehr als 4000 Flughäfen (METAR und TAF Bericht).

Die verfügbaren Stationen werden durch gelbe und rote Markierungen auf der Karte dargestellt.

Führen Sie die Maus auf sie, um den Namen der Station zu sehen.

Darauf klicken, um die Beobachtung von Wetterbeobachtungen und Prognosen zu sehen.

Um die Karte zu ändern : klicken Sie auf den grünen Tasten mit einem schwarzen Kreuz Zum Vergrößern, auf den grünen Button mit einem Gedankenstrich zu verkleinern, oder auf die grünen Pfeile für benachbarte Karten.


METAR-TAF: